Time;durP1;ratioP1;P1;durP2;ratioP2;P2;SDS_P1;SDS_P2;PMS_P1;PMS_P2;Temp;Humidity;BMP_temperature;BMP_pressure;BME280_temperature;BME280_humidity;BME280_pressure;Samples;Min_cycle;Max_cycle;Signal;HPM_P1;HPM_P2
2021/03/23 00:00:58;;;;;;;10.13;5.30;;;8.00;99.90;;;;;;5055482;28;20834;-47
2021/03/23 00:03:26;;;;;;;9.83;5.27;;;7.60;99.90;;;;;;5054593;28;20547;-47
2021/03/23 00:05:54;;;;;;;11.97;5.20;;;7.80;99.90;;;;;;5054798;28;20431;-47
2021/03/23 00:08:24;;;;;;;10.37;5.20;;;7.70;99.90;;;;;;5054510;28;20463;-47
2021/03/23 00:10:50;;;;;;;11.40;6.10;;;8.00;99.90;;;;;;5054699;28;20848;-47
2021/03/23 00:13:17;;;;;;;9.47;5.37;;;7.80;99.90;;;;;;5054304;28;20460;-47
2021/03/23 00:15:44;;;;;;;8.07;5.57;;;8.00;99.90;;;;;;5054538;28;20407;-46
2021/03/23 00:18:12;;;;;;;15.13;5.40;;;7.60;99.90;;;;;;5054564;28;20473;-47
2021/03/23 00:20:39;;;;;;;11.43;5.60;;;7.60;99.90;;;;;;5054387;28;20437;-47
2021/03/23 00:23:06;;;;;;;12.47;5.50;;;7.70;99.90;;;;;;5036073;28;20523;-46
2021/03/23 00:25:33;;;;;;;8.57;5.90;;;7.80;99.90;;;;;;5054302;28;20410;-47
2021/03/23 00:27:59;;;;;;;7.30;4.97;;;7.50;99.90;;;;;;5054426;28;20453;-47
2021/03/23 00:30:26;;;;;;;8.33;4.83;;;7.50;99.90;;;;;;5054134;28;20487;-47
2021/03/23 00:32:53;;;;;;;17.53;6.07;;;7.60;99.90;;;;;;5053864;28;20447;-47
2021/03/23 00:35:20;;;;;;;11.33;5.30;;;7.90;99.90;;;;;;5054719;28;20437;-47
2021/03/23 00:37:50;;;;;;;20.90;8.37;;;7.50;99.90;;;;;;5036643;28;20480;-47
2021/03/23 00:40:18;;;;;;;11.17;5.90;;;7.50;99.90;;;;;;5054383;28;20744;-47
2021/03/23 00:42:45;;;;;;;9.20;5.33;;;7.40;99.90;;;;;;5054318;28;20790;-47
2021/03/23 00:45:11;;;;;;;10.40;5.20;;;7.70;99.90;;;;;;5036854;28;20456;-48
2021/03/23 00:47:38;;;;;;;12.73;5.63;;;7.60;99.90;;;;;;5055210;28;20541;-47
2021/03/23 00:50:06;;;;;;;11.93;5.63;;;7.70;99.90;;;;;;5055631;28;20432;-47
2021/03/23 00:52:33;;;;;;;10.23;6.40;;;7.70;99.90;;;;;;5036591;28;20460;-48
2021/03/23 00:54:59;;;;;;;10.40;5.80;;;7.60;99.90;;;;;;5054634;28;20790;-47
2021/03/23 00:57:25;;;;;;;11.73;4.97;;;7.60;99.90;;;;;;5054703;28;20518;-48
2021/03/23 00:59:52;;;;;;;9.60;5.60;;;7.50;99.90;;;;;;5054705;28;20428;-47
2021/03/23 01:02:18;;;;;;;10.07;5.00;;;7.60;99.90;;;;;;5054586;28;20726;-47
2021/03/23 01:04:45;;;;;;;11.57;4.50;;;7.30;99.90;;;;;;5055060;28;20791;-47
2021/03/23 01:07:12;;;;;;;8.40;5.17;;;7.80;99.90;;;;;;5054756;28;20460;-47
2021/03/23 01:09:38;;;;;;;10.33;5.10;;;7.40;99.90;;;;;;5055127;28;20433;-46
2021/03/23 01:12:08;;;;;;;10.00;5.60;;;7.40;99.90;;;;;;5054960;28;20437;-46
2021/03/23 01:14:34;;;;;;;8.30;4.90;;;7.70;99.90;;;;;;5054113;28;20439;-46
2021/03/23 01:17:00;;;;;;;13.13;4.33;;;7.90;99.90;;;;;;5054137;28;20412;-47
2021/03/23 01:19:26;;;;;;;9.60;5.30;;;7.60;99.90;;;;;;5053358;28;20480;-47
2021/03/23 01:21:52;;;;;;;7.13;4.57;;;7.20;99.90;;;;;;5053225;28;20427;-46
2021/03/23 01:24:20;;;;;;;7.60;4.30;;;7.30;99.90;;;;;;5053005;28;20513;-47
2021/03/23 01:26:46;;;;;;;12.37;4.83;;;7.40;99.90;;;;;;5053300;28;20767;-47
2021/03/23 01:29:12;;;;;;;8.70;4.80;;;7.40;99.90;;;;;;5053039;28;20501;-47
2021/03/23 01:31:38;;;;;;;6.47;4.30;;;7.40;99.90;;;;;;5052797;28;20411;-47
2021/03/23 01:34:04;;;;;;;11.50;5.63;;;7.50;99.90;;;;;;5052489;28;20432;-46
2021/03/23 01:36:31;;;;;;;11.73;5.40;;;7.30;99.90;;;;;;5052849;28;20429;-47
2021/03/23 01:38:57;;;;;;;7.07;4.47;;;7.80;99.90;;;;;;5053609;28;20532;-47
2021/03/23 01:41:25;;;;;;;9.40;5.10;;;7.60;99.90;;;;;;5053459;28;20483;-47
2021/03/23 01:43:51;;;;;;;7.60;4.17;;;7.20;99.90;;;;;;5053108;28;20437;-45
2021/03/23 01:46:42;;;;;;;7.93;4.80;;;6.90;99.90;;;;;;5053414;28;20444;-46
2021/03/23 01:49:12;;;;;;;11.30;4.57;;;7.60;99.90;;;;;;5053216;28;20455;-47
2021/03/23 01:51:40;;;;;;;5.73;4.30;;;6.80;99.90;;;;;;5052682;28;20433;-47
2021/03/23 01:54:12;;;;;;;7.70;4.60;;;7.70;99.90;;;;;;5053313;28;20462;-47
2021/03/23 01:56:40;;;;;;;7.33;4.83;;;7.20;99.90;;;;;;5053303;28;20448;-46
2021/03/23 01:59:08;;;;;;;13.30;4.83;;;7.30;99.90;;;;;;5052939;28;20502;-46
2021/03/23 02:01:36;;;;;;;7.17;4.13;;;7.40;99.90;;;;;;5053314;28;20436;-47
2021/03/23 02:04:03;;;;;;;8.40;5.03;;;7.20;99.90;;;;;;5053105;28;20536;-47
2021/03/23 02:06:37;;;;;;;7.27;3.93;;;7.20;99.90;;;;;;5052887;28;20499;-47
2021/03/23 02:09:07;;;;;;;8.70;6.80;;;7.40;99.90;;;;;;5052647;28;20490;-48
2021/03/23 02:11:40;;;;;;;7.27;4.47;;;7.20;99.90;;;;;;5053028;28;20476;-47
2021/03/23 02:14:09;;;;;;;5.50;4.20;;;7.40;99.90;;;;;;5052473;28;20410;-47
2021/03/23 02:16:36;;;;;;;11.43;5.93;;;7.30;99.90;;;;;;5053012;28;20795;-47
2021/03/23 02:19:03;;;;;;;7.33;5.23;;;7.10;99.90;;;;;;5052606;28;20506;-47
2021/03/23 02:21:30;;;;;;;11.60;6.20;;;6.60;99.90;;;;;;5052746;28;20526;-47
2021/03/23 02:23:56;;;;;;;11.53;5.80;;;7.20;99.90;;;;;;5052280;28;20435;-47
2021/03/23 02:26:24;;;;;;;10.87;6.20;;;7.60;99.90;;;;;;5052414;28;20784;-47
2021/03/23 02:28:57;;;;;;;10.83;7.67;;;7.40;99.90;;;;;;5052384;28;20478;-47
2021/03/23 02:31:30;;;;;;;10.93;6.63;;;7.10;99.90;;;;;;5052387;28;20446;-47
2021/03/23 02:33:58;;;;;;;8.73;6.20;;;7.20;99.90;;;;;;5052188;28;20456;-47
2021/03/23 02:36:25;;;;;;;9.43;7.90;;;7.20;99.90;;;;;;5034419;28;20505;-47
2021/03/23 02:38:52;;;;;;;12.40;7.97;;;7.50;99.90;;;;;;5052038;28;20454;-47
2021/03/23 02:41:19;;;;;;;12.20;8.60;;;7.10;99.90;;;;;;5052558;28;20501;-47
2021/03/23 02:43:46;;;;;;;10.10;7.43;;;7.20;99.90;;;;;;5052124;28;20440;-47
2021/03/23 02:46:13;;;;;;;13.53;8.70;;;7.10;99.90;;;;;;5052644;28;20435;-47
2021/03/23 02:48:39;;;;;;;10.60;8.17;;;7.10;99.90;;;;;;5052442;28;20491;-47
2021/03/23 02:51:07;;;;;;;10.60;8.30;;;7.40;99.90;;;;;;5052274;28;20438;-47
2021/03/23 02:53:33;;;;;;;13.50;8.93;;;7.30;99.90;;;;;;5052946;28;20429;-47
2021/03/23 02:56:00;;;;;;;11.63;9.30;;;6.90;99.90;;;;;;5034472;28;20511;-47
2021/03/23 02:58:27;;;;;;;15.43;10.03;;;7.10;99.90;;;;;;5052114;28;21059;-47
2021/03/23 03:00:53;;;;;;;13.70;8.63;;;7.20;99.90;;;;;;5052167;28;20469;-47
2021/03/23 03:03:22;;;;;;;12.60;9.00;;;7.30;99.90;;;;;;5050997;28;20487;-47
2021/03/23 03:05:48;;;;;;;12.73;9.50;;;7.00;99.90;;;;;;5051973;28;20435;-47
2021/03/23 03:08:15;;;;;;;11.97;10.63;;;7.10;99.90;;;;;;5052622;28;21097;-47
2021/03/23 03:10:41;;;;;;;16.40;9.77;;;7.00;99.90;;;;;;5051972;28;20436;-46
2021/03/23 03:13:08;;;;;;;17.80;11.83;;;7.10;99.90;;;;;;5034172;28;20457;-46
2021/03/23 03:15:35;;;;;;;13.80;10.80;;;7.10;99.90;;;;;;5051806;28;20584;-47
2021/03/23 03:18:01;;;;;;;18.47;10.33;;;7.10;99.90;;;;;;5051658;28;20475;-48
2021/03/23 03:20:27;;;;;;;13.03;10.30;;;7.00;99.90;;;;;;5051757;28;20427;-48
2021/03/23 03:22:53;;;;;;;15.50;9.37;;;7.00;99.90;;;;;;5051730;28;20943;-47
2021/03/23 03:25:21;;;;;;;15.40;9.90;;;6.80;99.90;;;;;;5034301;28;20440;-48
2021/03/23 03:27:48;;;;;;;12.43;8.93;;;6.90;99.90;;;;;;5053350;28;20475;-49
2021/03/23 03:30:22;;;;;;;15.33;9.90;;;6.80;99.90;;;;;;5052674;28;20485;-45
2021/03/23 03:32:50;;;;;;;9.93;8.10;;;7.00;99.90;;;;;;5052521;28;20470;-46
2021/03/23 03:35:17;;;;;;;18.33;10.20;;;7.00;99.90;;;;;;5053862;28;20963;-45
2021/03/23 03:37:44;;;;;;;14.80;9.10;;;6.70;99.90;;;;;;5052356;28;20483;-46
2021/03/23 03:40:14;;;;;;;14.37;7.67;;;7.20;99.90;;;;;;5052127;28;20413;-48
2021/03/23 03:42:40;;;;;;;10.23;7.70;;;6.70;99.90;;;;;;5051873;28;20462;-47
2021/03/23 03:45:09;;;;;;;11.93;8.23;;;6.70;99.90;;;;;;5033897;28;20504;-48
2021/03/23 03:47:36;;;;;;;13.03;7.80;;;6.90;99.90;;;;;;5051607;28;20474;-47
2021/03/23 03:50:05;;;;;;;9.53;7.93;;;6.60;99.90;;;;;;5051850;28;20439;-46
2021/03/23 03:52:31;;;;;;;11.67;8.57;;;6.90;99.90;;;;;;5051964;28;20434;-47
2021/03/23 03:54:58;;;;;;;8.53;7.17;;;6.80;99.90;;;;;;5051600;28;20442;-48
2021/03/23 03:57:24;;;;;;;8.27;6.27;;;6.80;99.90;;;;;;5051594;28;20531;-47
2021/03/23 03:59:50;;;;;;;8.13;5.67;;;7.00;99.90;;;;;;5053151;28;20557;-47
2021/03/23 04:02:17;;;;;;;8.77;6.90;;;6.90;99.90;;;;;;5034074;28;20449;-48
2021/03/23 04:04:46;;;;;;;8.73;7.13;;;6.60;99.90;;;;;;5051758;28;20432;-45
2021/03/23 04:07:12;;;;;;;9.57;8.00;;;6.90;99.90;;;;;;5051469;28;20513;-48
2021/03/23 04:09:39;;;;;;;9.10;6.87;;;6.20;99.90;;;;;;5051332;28;20431;-46
2021/03/23 04:12:07;;;;;;;9.20;7.73;;;6.80;99.90;;;;;;5051400;28;20489;-47
2021/03/23 04:14:33;;;;;;;8.03;6.47;;;7.00;99.90;;;;;;5034614;28;20454;-48
2021/03/23 04:17:00;;;;;;;11.73;7.50;;;6.90;99.90;;;;;;5054972;28;20526;-47
2021/03/23 04:19:27;;;;;;;8.57;6.87;;;6.50;99.90;;;;;;5054944;28;20891;-47
2021/03/23 04:21:54;;;;;;;7.70;6.00;;;7.00;99.90;;;;;;5054982;28;20423;-47
2021/03/23 04:24:21;;;;;;;10.20;6.93;;;6.70;99.90;;;;;;5054711;28;20431;-47
2021/03/23 04:26:47;;;;;;;9.83;6.90;;;7.10;99.90;;;;;;5054819;28;21003;-47
2021/03/23 04:29:13;;;;;;;12.83;6.63;;;6.90;99.90;;;;;;5055219;28;20465;-48
2021/03/23 04:31:43;;;;;;;10.50;6.90;;;6.80;99.90;;;;;;5054842;28;20431;-46
2021/03/23 04:34:11;;;;;;;7.60;5.90;;;7.00;99.90;;;;;;5054406;28;20446;-47
2021/03/23 04:36:38;;;;;;;7.20;5.27;;;7.10;99.90;;;;;;5054719;28;20812;-48
2021/03/23 04:39:07;;;;;;;7.80;7.00;;;7.00;99.90;;;;;;5054561;28;20447;-47
2021/03/23 04:41:33;;;;;;;9.47;6.13;;;6.70;99.90;;;;;;5054647;28;20848;-48
2021/03/23 04:43:59;;;;;;;10.27;6.37;;;6.90;99.90;;;;;;5054248;28;20412;-48
2021/03/23 04:46:28;;;;;;;8.00;6.20;;;6.70;99.90;;;;;;5054632;28;20470;-47
2021/03/23 04:48:55;;;;;;;8.10;5.57;;;6.80;99.90;;;;;;5054315;28;20989;-47
2021/03/23 04:51:23;;;;;;;7.33;5.40;;;6.80;99.90;;;;;;5054656;28;20927;-46
2021/03/23 04:53:56;;;;;;;8.70;5.37;;;6.90;99.90;;;;;;5054044;28;20873;-46
2021/03/23 04:56:26;;;;;;;6.80;4.70;;;6.50;99.90;;;;;;5054567;28;20926;-46
2021/03/23 04:58:53;;;;;;;9.00;5.70;;;6.60;99.90;;;;;;5055456;28;20528;-46
2021/03/23 05:01:20;;;;;;;5.23;4.30;;;6.90;99.90;;;;;;5055595;28;20427;-47
2021/03/23 05:03:46;;;;;;;5.90;4.13;;;6.30;99.90;;;;;;5037505;28;20454;-46
2021/03/23 05:06:13;;;;;;;10.63;3.60;;;6.80;99.90;;;;;;5055754;28;20438;-46
2021/03/23 05:08:42;;;;;;;6.50;5.13;;;6.90;99.90;;;;;;5053933;28;20468;-48
2021/03/23 05:11:10;;;;;;;6.57;3.60;;;6.80;99.90;;;;;;5054336;28;20471;-47
2021/03/23 05:13:37;;;;;;;7.70;3.80;;;6.40;99.90;;;;;;5053707;28;20496;-49
2021/03/23 05:16:04;;;;;;;5.17;3.73;;;6.60;99.90;;;;;;5053840;28;20434;-48
2021/03/23 05:18:30;;;;;;;5.13;3.90;;;6.90;99.90;;;;;;5053688;28;20474;-48
2021/03/23 05:20:56;;;;;;;6.60;4.00;;;6.90;99.90;;;;;;5053694;28;20435;-47
2021/03/23 05:23:23;;;;;;;7.03;3.60;;;6.80;99.90;;;;;;5035192;28;20463;-47
2021/03/23 05:25:51;;;;;;;7.97;3.63;;;6.70;99.90;;;;;;5053090;28;20439;-48
2021/03/23 05:28:18;;;;;;;3.80;3.33;;;6.80;99.90;;;;;;5053758;28;20450;-48
2021/03/23 05:30:45;;;;;;;4.40;3.20;;;6.80;99.90;;;;;;5053559;28;20432;-48
2021/03/23 05:33:12;;;;;;;4.77;3.97;;;6.80;99.90;;;;;;5053512;28;20447;-49
2021/03/23 05:35:39;;;;;;;6.30;3.53;;;6.50;99.90;;;;;;5054053;28;20435;-47
2021/03/23 05:38:06;;;;;;;5.60;4.00;;;6.90;99.90;;;;;;5054156;28;20478;-47
2021/03/23 05:40:35;;;;;;;6.73;3.70;;;6.80;99.90;;;;;;5054325;28;20434;-46
2021/03/23 05:43:15;;;;;;;4.83;3.70;;;6.80;99.90;;;;;;5053794;28;20450;-47
2021/03/23 05:45:42;;;;;;;5.23;3.80;;;6.70;99.90;;;;;;5054140;28;20560;-47
2021/03/23 05:48:20;;;;;;;8.00;4.33;;;6.80;99.90;;;;;;5054440;28;20479;-47
2021/03/23 05:50:53;;;;;;;5.10;3.70;;;6.80;99.90;;;;;;5054485;28;20502;-47
2021/03/23 05:53:30;;;;;;;6.13;4.50;;;6.70;99.90;;;;;;5053030;28;20451;-47
2021/03/23 05:56:00;;;;;;;5.77;4.77;;;6.70;99.90;;;;;;5053165;28;20466;-48
2021/03/23 05:58:30;;;;;;;5.17;4.20;;;6.50;99.90;;;;;;5052806;28;20522;-47
2021/03/23 06:00:59;;;;;;;9.40;4.80;;;6.80;99.90;;;;;;5052796;28;20472;-47
2021/03/23 06:03:29;;;;;;;10.30;5.67;;;6.90;99.90;;;;;;5034489;28;20451;-47
2021/03/23 06:06:03;;;;;;;8.83;5.87;;;6.80;99.90;;;;;;5052793;28;20518;-48
2021/03/23 06:08:31;;;;;;;6.40;5.37;;;6.70;99.90;;;;;;5052705;28;20492;-48
2021/03/23 06:11:30;;;;;;;6.63;4.97;;;6.70;99.90;;;;;;5052718;28;20435;-48
2021/03/23 06:14:17;;;;;;;7.37;5.70;;;6.90;99.90;;;;;;5029665;28;20447;-47
2021/03/23 06:16:52;;;;;;;9.13;5.90;;;7.00;99.90;;;;;;5034434;28;20463;-48
2021/03/23 06:19:27;;;;;;;6.63;4.73;;;6.90;99.90;;;;;;5052775;28;20814;-48
2021/03/23 06:22:00;;;;;;;7.80;4.97;;;7.10;99.90;;;;;;5052629;28;20394;-47
2021/03/23 06:24:33;;;;;;;9.23;5.40;;;6.90;99.90;;;;;;5034220;28;20450;-46
2021/03/23 06:27:08;;;;;;;11.50;5.80;;;7.00;99.90;;;;;;5052035;28;20433;-46
2021/03/23 06:29:50;;;;;;;9.02;6.00;;;7.30;99.90;;;;;;5052498;28;20458;-48
2021/03/23 06:32:30;;;;;;;7.23;5.73;;;7.00;99.90;;;;;;5052429;28;20200;-48
2021/03/23 06:34:59;;;;;;;6.60;5.27;;;7.30;99.90;;;;;;5034371;28;20447;-47
2021/03/23 06:37:29;;;;;;;9.07;6.10;;;7.20;99.90;;;;;;5051962;28;20787;-47
2021/03/23 06:39:56;;;;;;;10.93;6.03;;;7.40;99.90;;;;;;5051708;28;20925;-47
2021/03/23 06:42:35;;;;;;;7.40;5.63;;;6.60;99.90;;;;;;5051757;28;20439;-47
2021/03/23 06:45:21;;;;;;;9.87;4.83;;;7.10;99.90;;;;;;5052133;28;20531;-48
2021/03/23 06:47:49;;;;;;;6.40;5.60;;;7.20;99.90;;;;;;5052289;28;20945;-47
2021/03/23 06:50:30;;;;;;;8.77;5.70;;;7.00;99.90;;;;;;5052306;28;20446;-47
2021/03/23 06:53:08;;;;;;;7.63;5.63;;;7.20;99.90;;;;;;5034366;28;20433;-47
2021/03/23 06:55:35;;;;;;;8.13;6.07;;;7.30;99.90;;;;;;5052541;28;20895;-46
2021/03/23 06:58:02;;;;;;;8.50;5.67;;;7.10;99.90;;;;;;5052109;28;20436;-48
2021/03/23 07:00:31;;;;;;;10.30;5.93;;;7.20;99.90;;;;;;5053100;28;20511;-47
2021/03/23 07:03:12;;;;;;;10.23;5.40;;;7.20;99.90;;;;;;5052402;28;20825;-47
2021/03/23 07:05:42;;;;;;;8.83;5.93;;;7.20;99.90;;;;;;5052311;28;20407;-46
2021/03/23 07:08:20;;;;;;;8.10;4.87;;;7.30;99.90;;;;;;5052147;28;20437;-48
2021/03/23 07:11:05;;;;;;;7.10;5.53;;;6.60;99.90;;;;;;5052285;28;20456;-49
2021/03/23 07:13:33;;;;;;;8.50;5.87;;;7.10;99.90;;;;;;5051729;28;20781;-48
2021/03/23 07:16:06;;;;;;;9.83;6.60;;;7.20;99.90;;;;;;5052014;28;20402;-48
2021/03/23 07:18:36;;;;;;;8.33;6.10;;;7.30;99.90;;;;;;5051793;28;20485;-48
2021/03/23 07:21:05;;;;;;;11.03;5.73;;;7.10;99.90;;;;;;5051942;28;20455;-47
2021/03/23 07:23:35;;;;;;;7.47;4.80;;;7.10;99.90;;;;;;5034587;28;20913;-49
2021/03/23 07:26:24;;;;;;;10.10;5.10;;;7.80;99.90;;;;;;5052794;28;20405;-47
2021/03/23 07:28:50;;;;;;;7.50;4.80;;;7.20;99.90;;;;;;5052784;28;20463;-48
2021/03/23 07:31:24;;;;;;;10.67;5.43;;;7.00;99.90;;;;;;5051942;28;20460;-48
2021/03/23 07:34:10;;;;;;;6.73;5.03;;;7.00;99.90;;;;;;5051896;28;20435;-47
2021/03/23 07:36:41;;;;;;;5.37;4.30;;;7.00;99.90;;;;;;5034595;28;20429;-48
2021/03/23 07:39:15;;;;;;;8.70;5.20;;;7.20;99.90;;;;;;5033504;28;20570;-47
2021/03/23 07:41:48;;;;;;;6.23;4.30;;;7.40;99.90;;;;;;5051917;28;20445;-48
2021/03/23 07:44:20;;;;;;;11.53;5.20;;;7.20;99.90;;;;;;5052153;28;20823;-47
2021/03/23 07:46:52;;;;;;;9.63;4.70;;;7.40;99.90;;;;;;5052408;28;20444;-47
2021/03/23 07:49:33;;;;;;;6.40;4.63;;;7.60;99.90;;;;;;5053589;28;20419;-47
2021/03/23 07:52:08;;;;;;;6.73;4.37;;;7.50;99.90;;;;;;5056027;28;20431;-47
2021/03/23 07:54:36;;;;;;;6.60;4.47;;;7.80;99.90;;;;;;5055980;28;20442;-47
2021/03/23 07:57:32;;;;;;;7.10;4.60;;;7.70;99.90;;;;;;5055657;28;20767;-47
2021/03/23 08:00:15;;;;;;;6.70;4.50;;;7.80;99.90;;;;;;5055536;28;20474;-49
2021/03/23 08:02:55;;;;;;;8.17;4.70;;;7.70;99.90;;;;;;5055495;28;20502;-48
2021/03/23 08:05:28;;;;;;;4.97;4.47;;;7.40;99.90;;;;;;5037775;28;20465;-47
2021/03/23 08:08:09;;;;;;;10.97;5.77;;;7.30;99.90;;;;;;5055017;28;20460;-47
2021/03/23 08:10:40;;;;;;;7.60;4.03;;;7.50;99.90;;;;;;5055149;28;20484;-47
2021/03/23 08:13:33;;;;;;;5.70;4.10;;;7.40;99.90;;;;;;5055032;28;20428;-47
2021/03/23 08:16:19;;;;;;;5.60;4.53;;;7.70;99.90;;;;;;5036901;28;20997;-49
2021/03/23 08:19:05;;;;;;;8.80;5.37;;;7.60;99.90;;;;;;5054912;28;20541;-47
2021/03/23 08:21:56;;;;;;;7.33;4.83;;;7.30;99.90;;;;;;5054871;28;20432;-48
2021/03/23 08:24:35;;;;;;;13.93;4.90;;;7.40;99.90;;;;;;5050785;28;20485;-47
2021/03/23 08:27:29;;;;;;;10.00;5.67;;;7.50;99.90;;;;;;5055058;28;20764;-49
2021/03/23 08:30:07;;;;;;;7.93;4.10;;;7.30;99.90;;;;;;5036896;28;20550;-47
2021/03/23 08:32:40;;;;;;;8.77;6.13;;;7.70;99.90;;;;;;5053753;28;20546;-48
2021/03/23 08:35:29;;;;;;;8.67;4.77;;;7.20;99.90;;;;;;5036479;28;20456;-47
2021/03/23 08:38:13;;;;;;;9.70;4.90;;;7.60;99.90;;;;;;5054151;28;20437;-47
2021/03/23 08:40:47;;;;;;;10.67;7.40;;;7.70;99.90;;;;;;5054413;28;20534;-47
2021/03/23 08:43:23;;;;;;;13.03;5.97;;;7.50;99.90;;;;;;5053659;28;20409;-48
2021/03/23 08:45:51;;;;;;;8.87;5.53;;;8.10;99.90;;;;;;5054291;28;20489;-48
2021/03/23 08:48:28;;;;;;;6.47;4.23;;;7.80;99.90;;;;;;5054901;28;20448;-47
2021/03/23 08:51:01;;;;;;;5.80;4.40;;;7.90;99.90;;;;;;5054747;28;20521;-47
2021/03/23 08:53:54;;;;;;;5.40;4.53;;;7.60;99.90;;;;;;5053967;28;20431;-47
2021/03/23 08:56:57;;;;;;;6.57;4.17;;;7.70;99.90;;;;;;5054803;28;20494;-47
2021/03/23 08:59:49;;;;;;;8.80;4.63;;;7.60;99.90;;;;;;5054578;28;20475;-48
2021/03/23 09:02:46;;;;;;;12.50;4.70;;;7.50;99.90;;;;;;5053045;28;20447;-47
2021/03/23 09:05:32;;;;;;;7.10;5.20;;;7.90;99.90;;;;;;5054289;28;20444;-48
2021/03/23 09:08:41;;;;;;;6.97;4.63;;;7.70;99.90;;;;;;5054235;28;20566;-48
2021/03/23 09:11:12;;;;;;;11.23;5.20;;;7.70;99.90;;;;;;5053920;28;20439;-50
2021/03/23 09:14:18;;;;;;;7.50;4.60;;;7.80;99.90;;;;;;5052918;28;20475;-50
2021/03/23 09:16:51;;;;;;;8.47;5.03;;;8.10;99.90;;;;;;5053822;28;20427;-49
2021/03/23 09:19:37;;;;;;;7.70;4.93;;;7.50;99.90;;;;;;5053544;28;20515;-49
2021/03/23 09:22:40;;;;;;;12.50;5.90;;;7.90;99.90;;;;;;5053382;28;20434;-47
2021/03/23 09:25:50;;;;;;;15.57;5.70;;;7.90;99.90;;;;;;5051193;28;20537;-49
2021/03/23 09:28:50;;;;;;;6.80;4.93;;;8.00;99.90;;;;;;5053364;28;20472;-48
2021/03/23 09:31:22;;;;;;;6.20;4.00;;;8.20;99.90;;;;;;5035162;28;20444;-48
2021/03/23 09:33:51;;;;;;;10.47;5.53;;;7.90;99.90;;;;;;5052868;28;20436;-47
2021/03/23 09:36:45;;;;;;;8.73;5.60;;;8.20;99.90;;;;;;5053367;28;20447;-48
2021/03/23 09:39:44;;;;;;;9.30;5.47;;;7.90;99.90;;;;;;5053669;28;20530;-48
2021/03/23 09:42:40;;;;;;;10.53;4.30;;;8.30;99.90;;;;;;5053267;28;20471;-48
2021/03/23 09:45:29;;;;;;;7.43;4.50;;;8.00;99.90;;;;;;5050916;28;20502;-48
2021/03/23 09:48:28;;;;;;;12.10;4.57;;;7.70;99.90;;;;;;5052822;28;20471;-48
2021/03/23 09:51:02;;;;;;;6.83;4.47;;;7.70;99.90;;;;;;5052614;28;20453;-49
2021/03/23 09:53:41;;;;;;;6.47;4.53;;;8.00;99.90;;;;;;5053026;28;20433;-49
2021/03/23 09:56:12;;;;;;;5.23;3.73;;;8.00;99.90;;;;;;5053006;28;20486;-50
2021/03/23 09:58:40;;;;;;;10.10;4.57;;;8.20;99.90;;;;;;5052583;28;20487;-48
2021/03/23 10:01:16;;;;;;;6.60;4.13;;;8.50;99.90;;;;;;5052624;28;20851;-47
2021/03/23 10:03:45;;;;;;;8.90;4.70;;;8.50;99.90;;;;;;5052760;28;20429;-48
2021/03/23 10:06:15;;;;;;;4.90;4.13;;;8.40;99.90;;;;;;5052608;28;20436;-48
2021/03/23 10:08:53;;;;;;;12.60;4.73;;;8.60;99.90;;;;;;5052780;28;20462;-48
2021/03/23 10:11:22;;;;;;;7.30;4.30;;;8.80;99.90;;;;;;5035134;28;20422;-47
2021/03/23 10:13:53;;;;;;;9.17;4.40;;;8.70;99.90;;;;;;5052463;28;20447;-47
2021/03/23 10:16:33;;;;;;;16.23;4.90;;;8.90;99.90;;;;;;5034844;28;20467;-49
2021/03/23 10:19:07;;;;;;;4.97;4.03;;;8.80;99.90;;;;;;5035410;28;20472;-49
2021/03/23 10:21:36;;;;;;;7.20;3.70;;;9.10;99.90;;;;;;5053021;28;20937;-47
2021/03/23 10:24:06;;;;;;;6.23;4.70;;;8.90;99.90;;;;;;5052782;28;20796;-48
2021/03/23 10:26:39;;;;;;;5.40;3.00;;;9.00;99.90;;;;;;5052599;28;20914;-49
2021/03/23 10:29:20;;;;;;;6.83;4.00;;;8.90;99.90;;;;;;5052801;28;20465;-49
2021/03/23 10:31:51;;;;;;;7.27;3.57;;;9.10;99.90;;;;;;5052367;28;20499;-49
2021/03/23 10:34:22;;;;;;;9.10;4.20;;;9.30;99.90;;;;;;5052173;28;20926;-50
2021/03/23 10:36:54;;;;;;;7.33;3.73;;;9.20;99.90;;;;;;5053030;28;20435;-48
2021/03/23 10:39:46;;;;;;;10.17;3.77;;;9.30;99.90;;;;;;5052244;28;20475;-48
2021/03/23 10:42:20;;;;;;;9.00;3.60;;;9.70;99.90;;;;;;5052356;28;20444;-49
2021/03/23 10:44:47;;;;;;;9.63;4.30;;;9.60;99.90;;;;;;5052537;28;20494;-47
2021/03/23 10:47:31;;;;;;;13.43;4.13;;;9.40;99.90;;;;;;5052206;28;20905;-50
2021/03/23 10:50:19;;;;;;;12.07;3.20;;;9.60;99.90;;;;;;5052150;28;20449;-48
2021/03/23 10:52:47;;;;;;;8.43;3.30;;;9.50;99.90;;;;;;5051839;28;20500;-48
2021/03/23 10:55:20;;;;;;;6.30;3.10;;;9.60;99.90;;;;;;5051793;28;20457;-49
2021/03/23 10:57:48;;;;;;;11.23;3.87;;;9.00;99.90;;;;;;5052090;28;20934;-48
2021/03/23 11:00:25;;;;;;;9.63;3.30;;;9.60;99.90;;;;;;5051897;28;20540;-49
2021/03/23 11:02:52;;;;;;;10.47;3.50;;;9.60;99.90;;;;;;5033909;28;20423;-49
2021/03/23 11:05:21;;;;;;;6.60;4.17;;;9.70;99.90;;;;;;5052048;28;21077;-48
2021/03/23 11:08:00;;;;;;;13.60;3.30;;;9.20;99.90;;;;;;5051599;28;20466;-47
2021/03/23 11:10:29;;;;;;;9.53;3.40;;;9.70;99.90;;;;;;5051788;28;20492;-48
2021/03/23 11:12:56;;;;;;;3.90;2.87;;;9.80;99.90;;;;;;5051322;28;20430;-47
2021/03/23 11:15:23;;;;;;;4.20;3.33;;;10.00;99.90;;;;;;5051681;28;20430;-49
2021/03/23 11:17:51;;;;;;;7.30;2.77;;;9.80;99.90;;;;;;5051201;28;20450;-47
2021/03/23 11:20:27;;;;;;;5.20;2.57;;;9.90;99.90;;;;;;5051467;28;20477;-48
2021/03/23 11:22:56;;;;;;;7.10;2.00;;;10.10;99.90;;;;;;5051269;28;20430;-48
2021/03/23 11:25:25;;;;;;;7.53;2.90;;;9.80;99.90;;;;;;5050981;28;20466;-46
2021/03/23 11:27:54;;;;;;;8.37;3.30;;;9.90;99.90;;;;;;5051972;28;20526;-47
2021/03/23 11:30:21;;;;;;;7.17;2.93;;;10.40;99.90;;;;;;5052531;28;20935;-47
2021/03/23 11:32:49;;;;;;;9.57;6.53;;;10.40;99.90;;;;;;5052005;28;20434;-48
2021/03/23 11:35:17;;;;;;;6.90;3.50;;;10.20;99.90;;;;;;5052718;28;20438;-49
2021/03/23 11:37:45;;;;;;;3.47;2.50;;;10.30;99.90;;;;;;5034090;28;20538;-48
2021/03/23 11:40:13;;;;;;;2.57;2.30;;;10.30;99.90;;;;;;5052071;28;20573;-47
2021/03/23 11:42:43;;;;;;;3.17;1.90;;;10.20;99.90;;;;;;5051555;28;20431;-48
2021/03/23 11:45:19;;;;;;;6.20;2.63;;;10.20;99.90;;;;;;5051618;28;20514;-50
2021/03/23 11:47:54;;;;;;;8.07;3.20;;;10.30;99.80;;;;;;5050331;28;20470;-48
2021/03/23 11:50:24;;;;;;;5.93;3.10;;;10.30;99.80;;;;;;5050709;28;20430;-48
2021/03/23 11:52:53;;;;;;;5.63;2.70;;;10.40;99.90;;;;;;5050509;28;20430;-48
2021/03/23 11:55:23;;;;;;;8.43;2.60;;;10.60;99.60;;;;;;5050620;28;20445;-49
2021/03/23 11:57:50;;;;;;;8.70;2.70;;;10.60;99.70;;;;;;5050975;28;20766;-48
2021/03/23 12:00:18;;;;;;;6.20;4.30;;;10.50;99.50;;;;;;5050900;28;20478;-49
2021/03/23 12:02:48;;;;;;;5.67;3.30;;;10.60;99.70;;;;;;5050341;28;20431;-49
2021/03/23 12:05:16;;;;;;;10.73;3.93;;;10.70;99.40;;;;;;5050421;28;20446;-47
2021/03/23 12:08:08;;;;;;;8.20;3.27;;;10.50;99.30;;;;;;5050965;28;20437;-48
2021/03/23 12:10:45;;;;;;;4.67;3.50;;;10.30;99.20;;;;;;5050780;28;20507;-47
2021/03/23 12:13:18;;;;;;;12.70;4.83;;;10.70;99.50;;;;;;5050100;28;20880;-49
2021/03/23 12:15:54;;;;;;;8.77;4.13;;;10.80;99.40;;;;;;5050480;28;20481;-48
2021/03/23 12:18:22;;;;;;;8.70;3.57;;;10.40;98.80;;;;;;5050270;28;20446;-46
2021/03/23 12:20:54;;;;;;;5.73;3.77;;;10.20;99.20;;;;;;5050957;28;20496;-48
2021/03/23 12:23:22;;;;;;;8.37;4.50;;;10.40;99.50;;;;;;5050407;28;20434;-49
2021/03/23 12:25:52;;;;;;;6.57;3.80;;;10.30;99.70;;;;;;5050597;28;20434;-48
2021/03/23 12:28:18;;;;;;;11.37;4.70;;;10.20;99.90;;;;;;5050494;28;20591;-46
2021/03/23 12:30:45;;;;;;;6.40;4.30;;;10.10;99.90;;;;;;5051236;28;20753;-48
2021/03/23 12:33:13;;;;;;;5.70;3.93;;;9.80;99.90;;;;;;5049873;28;20521;-48
2021/03/23 12:35:40;;;;;;;10.73;4.03;;;9.70;99.90;;;;;;5052226;28;20517;-50
2021/03/23 12:38:10;;;;;;;8.53;3.37;;;9.70;99.90;;;;;;5054305;28;20855;-49
2021/03/23 12:40:40;;;;;;;5.53;3.20;;;9.60;99.90;;;;;;5054641;28;20823;-47
2021/03/23 12:43:14;;;;;;;8.60;3.53;;;10.00;99.90;;;;;;5036466;28;20446;-48
2021/03/23 12:45:42;;;;;;;7.57;3.87;;;10.00;99.90;;;;;;5054895;28;20435;-46
2021/03/23 12:48:10;;;;;;;9.40;4.80;;;9.90;99.90;;;;;;5054385;28;20537;-48
2021/03/23 12:50:37;;;;;;;7.50;4.03;;;10.00;99.90;;;;;;5054061;28;20435;-48
2021/03/23 12:53:07;;;;;;;11.80;4.10;;;10.10;99.90;;;;;;5053704;28;20459;-48
2021/03/23 12:55:35;;;;;;;9.87;3.93;;;10.50;99.90;;;;;;5054164;28;20441;-49
2021/03/23 12:58:03;;;;;;;7.07;3.30;;;10.60;99.90;;;;;;5054438;28;20492;-49
2021/03/23 13:00:34;;;;;;;6.67;3.60;;;10.60;99.80;;;;;;5054029;28;20506;-48
2021/03/23 13:03:02;;;;;;;6.07;2.73;;;10.90;99.60;;;;;;5053552;28;20423;-47
2021/03/23 13:05:30;;;;;;;7.23;3.90;;;11.00;99.20;;;;;;5054057;28;20593;-47
2021/03/23 13:08:00;;;;;;;5.43;3.40;;;10.90;99.30;;;;;;5035632;28;20899;-47
2021/03/23 13:10:30;;;;;;;6.97;3.37;;;10.60;99.00;;;;;;5035642;28;20447;-48
2021/03/23 13:12:59;;;;;;;6.57;3.90;;;10.60;99.20;;;;;;5053166;28;20765;-48
2021/03/23 13:15:27;;;;;;;7.63;3.20;;;10.50;99.30;;;;;;5053633;28;20427;-48
2021/03/23 13:17:54;;;;;;;5.27;2.90;;;10.50;99.00;;;;;;5053975;28;20438;-48